createdAt,value
2023-04-09T00:01:13.183Z,43.08
2023-04-09T00:04:15.760Z,41.97
2023-04-09T00:07:20.197Z,42.72
2023-04-09T00:10:22.751Z,39.03
2023-04-09T00:13:31.960Z,39.47
2023-04-09T00:16:41.407Z,41.22
2023-04-09T00:19:44.046Z,46.15
2023-04-09T00:22:48.477Z,42.60
2023-04-09T00:25:50.984Z,43.08
2023-04-09T00:28:53.754Z,44.58
2023-04-09T00:31:56.599Z,47.13
2023-04-09T00:34:59.161Z,45.13
2023-04-09T00:38:03.047Z,42.80
2023-04-09T00:41:05.808Z,44.42
2023-04-09T00:44:08.384Z,46.38
2023-04-09T00:47:11.064Z,45.88
2023-04-09T00:50:13.620Z,48.33
2023-04-09T00:53:17.494Z,50.63
2023-04-09T00:56:19.978Z,48.70
2023-04-09T00:59:22.601Z,47.42
2023-04-09T01:02:25.363Z,53.15
2023-04-09T01:05:29.452Z,50.47
2023-04-09T01:08:37.317Z,49.22
2023-04-09T01:11:42.940Z,41.60
2023-04-09T01:14:46.724Z,42.17
2023-04-09T01:17:51.638Z,48.10
2023-04-09T01:20:58.390Z,46.83
2023-04-09T01:24:10.692Z,45.78
2023-04-09T01:27:13.205Z,46.05
2023-04-09T01:30:17.545Z,50.22
2023-04-09T01:33:20.926Z,48.85
2023-04-09T01:36:23.483Z,50.13
2023-04-09T01:39:26.352Z,50.20
2023-04-09T01:42:28.984Z,50.70
2023-04-09T01:45:32.930Z,51.38
2023-04-09T01:48:35.416Z,52.42
2023-04-09T01:51:37.898Z,56.65
2023-04-09T01:54:40.393Z,55.17
2023-04-09T01:57:42.916Z,53.22
2023-04-09T02:00:48.329Z,53.20
2023-04-09T02:03:53.257Z,58.35
2023-04-09T02:07:00.031Z,62.08
2023-04-09T02:10:02.649Z,59.05
2023-04-09T02:13:05.761Z,51.22
2023-04-09T02:16:09.677Z,54.30
2023-04-09T02:19:12.233Z,59.75
2023-04-09T02:22:14.825Z,58.65
2023-04-09T02:25:17.350Z,48.80
2023-04-09T02:28:19.893Z,51.08
2023-04-09T02:31:23.865Z,58.75
2023-04-09T02:34:26.432Z,45.95
2023-04-09T02:37:28.947Z,35.10
2023-04-09T02:40:31.483Z,39.28
2023-04-09T02:43:34.059Z,42.88
2023-04-09T02:46:39.058Z,44.42
2023-04-09T02:49:41.649Z,40.47
2023-04-09T02:52:46.588Z,40.42
2023-04-09T02:55:49.163Z,41.40
2023-04-09T02:58:54.260Z,43.70
2023-04-09T03:01:58.453Z,42.00
2023-04-09T03:05:01.258Z,42.88
2023-04-09T03:08:03.831Z,42.22
2023-04-09T03:11:06.417Z,46.58
2023-04-09T03:14:08.996Z,55.95
2023-04-09T03:17:12.868Z,48.30
2023-04-09T03:20:15.422Z,46.33
2023-04-09T03:23:18.028Z,40.45
2023-04-09T03:26:20.710Z,40.78
2023-04-09T03:29:23.249Z,44.13
2023-04-09T03:32:27.150Z,48.20
2023-04-09T03:35:29.790Z,47.17
2023-04-09T03:38:32.330Z,46.50
2023-04-09T03:41:34.844Z,47.80
2023-04-09T03:44:37.396Z,47.92
2023-04-09T03:47:41.360Z,56.70
2023-04-09T03:50:43.903Z,63.17
2023-04-09T03:53:46.403Z,51.50
2023-04-09T03:56:49.968Z,54.10
2023-04-09T03:59:52.553Z,51.85
2023-04-09T04:02:56.634Z,49.55
2023-04-09T04:06:01.347Z,51.97
2023-04-09T04:09:03.860Z,58.20
2023-04-09T04:12:06.674Z,60.88
2023-04-09T04:15:10.055Z,57.67
2023-04-09T04:18:13.905Z,61.22
2023-04-09T04:21:16.633Z,61.13
2023-04-09T04:24:19.125Z,57.63
2023-04-09T04:27:21.638Z,59.53
2023-04-09T04:30:24.274Z,59.28
2023-04-09T04:33:28.215Z,55.60
2023-04-09T04:36:30.979Z,49.58
2023-04-09T04:39:34.009Z,51.72
2023-04-09T04:42:36.618Z,51.53
2023-04-09T04:45:39.191Z,48.53
2023-04-09T04:48:43.127Z,53.13
2023-04-09T04:51:45.685Z,55.45
2023-04-09T04:54:48.207Z,47.15
2023-04-09T04:57:52.241Z,48.78
2023-04-09T05:00:54.780Z,45.53
2023-04-09T05:03:58.694Z,46.13
2023-04-09T05:07:01.415Z,49.22
2023-04-09T05:10:04.110Z,46.05
2023-04-09T05:13:06.675Z,47.05
2023-04-09T05:16:09.276Z,48.35
2023-04-09T05:19:13.205Z,44.83
2023-04-09T05:22:15.781Z,46.75
2023-04-09T05:25:18.430Z,48.30
2023-04-09T05:28:21.003Z,42.65
2023-04-09T05:31:23.779Z,44.72
2023-04-09T05:34:27.964Z,51.22
2023-04-09T05:37:30.685Z,45.95
2023-04-09T05:40:33.277Z,48.72
2023-04-09T05:43:35.785Z,44.25
2023-04-09T05:46:38.264Z,47.92
2023-04-09T05:49:42.119Z,40.03
2023-04-09T05:52:44.635Z,49.08
2023-04-09T05:55:49.066Z,45.42
2023-04-09T05:58:52.012Z,48.05
2023-04-09T06:01:54.581Z,44.92
2023-04-09T06:04:58.512Z,46.00
2023-04-09T06:08:01.499Z,46.53
2023-04-09T06:11:04.727Z,49.67
2023-04-09T06:14:07.273Z,49.03
2023-04-09T06:17:09.772Z,48.78
2023-04-09T06:20:13.739Z,47.88
2023-04-09T06:23:16.314Z,41.22
2023-04-09T06:26:18.889Z,44.88
2023-04-09T06:29:23.755Z,46.10
2023-04-09T06:32:26.913Z,41.38
2023-04-09T06:35:30.931Z,41.72
2023-04-09T06:38:33.505Z,44.30
2023-04-09T06:41:36.284Z,43.80
2023-04-09T06:44:38.848Z,45.53
2023-04-09T06:47:42.501Z,46.55
2023-04-09T06:50:46.561Z,45.88
2023-04-09T06:53:49.696Z,42.92
2023-04-09T06:56:52.505Z,43.95
2023-04-09T06:59:55.074Z,48.30
2023-04-09T07:02:57.783Z,45.03
2023-04-09T07:06:02.041Z,46.40
2023-04-09T07:09:04.793Z,50.50
2023-04-09T07:12:07.369Z,49.17
2023-04-09T07:15:10.199Z,51.83
2023-04-09T07:18:12.729Z,46.92
2023-04-09T07:21:16.873Z,46.88
2023-04-09T07:24:19.367Z,49.92
2023-04-09T07:27:21.960Z,45.47
2023-04-09T07:30:24.536Z,48.92
2023-04-09T07:33:27.104Z,51.55
2023-04-09T07:36:31.677Z,47.35
2023-04-09T07:39:34.537Z,52.50
2023-04-09T07:42:38.183Z,51.78
2023-04-09T07:45:40.748Z,60.00
2023-04-09T07:48:43.352Z,58.17
2023-04-09T07:51:47.218Z,56.53
2023-04-09T07:54:49.775Z,59.38
2023-04-09T07:57:53.244Z,74.93
2023-04-09T08:00:55.861Z,63.63
2023-04-09T08:03:58.627Z,80.32
2023-04-09T08:07:02.649Z,76.97
2023-04-09T08:10:06.361Z,72.63
2023-04-09T08:13:10.186Z,78.57
2023-04-09T08:16:14.500Z,80.32
2023-04-09T08:19:17.155Z,79.47
2023-04-09T08:22:21.240Z,84.70
2023-04-09T08:25:24.032Z,80.50
2023-04-09T08:28:26.642Z,84.90
2023-04-09T08:31:29.206Z,82.40
2023-04-09T08:34:31.780Z,77.32
2023-04-09T08:37:35.678Z,91.72
2023-04-09T08:40:38.298Z,80.78
2023-04-09T08:43:56.131Z,75.53
2023-04-09T08:47:00.100Z,80.28
2023-04-09T08:50:02.623Z,71.65
2023-04-09T08:53:07.201Z,71.78
2023-04-09T08:56:09.771Z,76.20
2023-04-09T08:59:12.259Z,75.35
2023-04-09T09:02:15.030Z,77.05
2023-04-09T09:05:17.630Z,79.68
2023-04-09T09:08:25.800Z,79.20
2023-04-09T09:11:28.927Z,79.30
2023-04-09T09:14:32.469Z,84.80
2023-04-09T09:17:35.625Z,75.07
2023-04-09T09:20:38.469Z,73.10
2023-04-09T09:23:42.847Z,70.40
2023-04-09T09:26:45.520Z,66.03
2023-04-09T09:29:48.100Z,74.50
2023-04-09T09:32:53.155Z,69.07
2023-04-09T09:35:57.615Z,78.18
2023-04-09T09:39:03.767Z,68.82
2023-04-09T09:42:08.342Z,69.72
2023-04-09T09:45:19.182Z,72.47
2023-04-09T09:48:21.667Z,74.32
2023-04-09T09:51:28.200Z,73.53
2023-04-09T09:54:33.244Z,78.47
2023-04-09T09:57:35.816Z,76.75
2023-04-09T10:00:38.467Z,83.88
2023-04-09T10:03:42.248Z,66.63
2023-04-09T10:06:45.384Z,79.75
2023-04-09T10:09:50.710Z,75.70
2023-04-09T10:12:53.241Z,87.93
2023-04-09T10:15:55.837Z,79.25
2023-04-09T10:18:58.963Z,79.90
2023-04-09T10:22:05.608Z,76.00
2023-04-09T10:25:10.545Z,68.32
2023-04-09T10:28:16.412Z,72.00
2023-04-09T10:31:19.040Z,74.38
2023-04-09T10:34:23.250Z,74.00
2023-04-09T10:37:26.434Z,76.78
2023-04-09T10:40:30.389Z,75.00
2023-04-09T10:43:32.900Z,78.88
2023-04-09T10:46:36.280Z,77.20
2023-04-09T10:49:39.367Z,72.20
2023-04-09T10:52:42.144Z,62.45
2023-04-09T10:55:49.863Z,73.95
2023-04-09T10:58:52.537Z,63.97
2023-04-09T11:01:55.311Z,52.28
2023-04-09T11:05:02.056Z,71.63
2023-04-09T11:08:06.647Z,72.55
2023-04-09T11:11:11.449Z,63.72
2023-04-09T11:14:20.439Z,48.17
2023-04-09T11:17:23.118Z,70.22
2023-04-09T11:20:26.496Z,64.40
2023-04-09T11:23:28.998Z,56.65
2023-04-09T11:26:37.654Z,52.70
2023-04-09T11:29:40.522Z,35.40
2023-04-09T11:32:43.116Z,65.72
2023-04-09T11:35:45.785Z,46.78
2023-04-09T11:38:49.195Z,44.53
2023-04-09T11:41:53.238Z,66.72
2023-04-09T11:44:55.836Z,65.20
2023-04-09T11:47:58.519Z,25.05
2023-04-09T11:51:01.503Z,65.28
2023-04-09T11:54:04.158Z,47.35
2023-04-09T11:57:08.071Z,32.63
2023-04-09T12:00:11.962Z,57.30
2023-04-09T12:03:16.289Z,53.35
2023-04-09T12:06:19.419Z,30.63
2023-04-09T12:09:21.944Z,53.15
2023-04-09T12:12:26.343Z,52.97
2023-04-09T12:15:34.745Z,48.75
2023-04-09T12:18:37.416Z,51.35
2023-04-09T12:21:47.181Z,43.88
2023-04-09T12:24:49.692Z,43.63
2023-04-09T12:27:54.068Z,53.95
2023-04-09T12:30:57.601Z,51.83
2023-04-09T12:34:00.461Z,29.23
2023-04-09T12:37:03.025Z,33.65
2023-04-09T12:40:06.480Z,48.00
2023-04-09T12:43:10.476Z,29.20
2023-04-09T12:46:13.031Z,37.72
2023-04-09T12:49:16.699Z,43.78
2023-04-09T12:52:19.435Z,44.20
2023-04-09T12:55:21.932Z,26.52
2023-04-09T12:58:25.865Z,42.38
2023-04-09T13:01:28.445Z,47.47
2023-04-09T13:04:31.296Z,46.85
2023-04-09T13:07:34.001Z,47.13
2023-04-09T13:10:36.839Z,42.13
2023-04-09T13:13:42.639Z,43.78
2023-04-09T13:16:45.329Z,44.58
2023-04-09T13:19:47.915Z,41.80
2023-04-09T13:22:50.916Z,45.25
2023-04-09T13:25:53.473Z,40.22
2023-04-09T13:28:57.528Z,41.22
2023-04-09T13:32:02.473Z,42.72
2023-04-09T13:35:05.370Z,42.75
2023-04-09T13:38:07.916Z,38.03
2023-04-09T13:41:10.553Z,40.38
2023-04-09T13:44:14.483Z,36.20
2023-04-09T13:47:17.664Z,37.08
2023-04-09T13:50:20.290Z,39.95
2023-04-09T13:53:24.185Z,34.58
2023-04-09T13:56:27.409Z,24.48
2023-04-09T13:59:31.355Z,30.50
2023-04-09T14:02:34.073Z,18.42
2023-04-09T14:05:36.707Z,31.58
2023-04-09T14:08:39.205Z,36.50
2023-04-09T14:11:41.734Z,17.52
2023-04-09T14:14:45.728Z,28.60
2023-04-09T14:17:48.283Z,25.25
2023-04-09T14:20:51.064Z,20.45
2023-04-09T14:23:53.636Z,34.67
2023-04-09T14:26:56.745Z,20.17
2023-04-09T14:30:00.689Z,15.90
2023-04-09T14:33:03.267Z,30.75
2023-04-09T14:36:06.272Z,14.38
2023-04-09T14:39:09.022Z,28.60
2023-04-09T14:42:12.505Z,26.85
2023-04-09T14:45:16.540Z,21.48
2023-04-09T14:48:19.115Z,29.00
2023-04-09T14:51:21.687Z,26.35
2023-04-09T14:54:24.229Z,24.67
2023-04-09T14:57:26.768Z,24.08
2023-04-09T15:00:31.373Z,26.15
2023-04-09T15:03:34.233Z,24.67
2023-04-09T15:06:37.055Z,20.38
2023-04-09T15:09:39.574Z,24.95
2023-04-09T15:12:42.134Z,24.23
2023-04-09T15:15:46.293Z,24.30
2023-04-09T15:18:51.285Z,24.25
2023-04-09T15:21:54.001Z,22.08
2023-04-09T15:24:56.532Z,21.85
2023-04-09T15:27:59.526Z,25.05
2023-04-09T15:31:03.693Z,21.95
2023-04-09T15:34:06.910Z,19.45
2023-04-09T15:37:09.435Z,17.33
2023-04-09T15:40:13.120Z,19.05
2023-04-09T15:43:15.722Z,18.50
2023-04-09T15:46:19.695Z,19.98
2023-04-09T15:49:22.843Z,18.33
2023-04-09T15:52:25.765Z,21.73
2023-04-09T15:55:28.367Z,19.00
2023-04-09T15:58:30.887Z,19.55
2023-04-09T16:01:34.889Z,18.70
2023-04-09T16:04:37.539Z,19.77
2023-04-09T16:07:40.285Z,17.10
2023-04-09T16:10:42.881Z,19.70
2023-04-09T16:13:46.081Z,18.40
2023-04-09T16:16:51.166Z,18.17
2023-04-09T16:19:54.011Z,19.15
2023-04-09T16:22:56.607Z,21.30
2023-04-09T16:25:59.279Z,19.25
2023-04-09T16:29:03.992Z,16.85
2023-04-09T16:32:08.139Z,17.10
2023-04-09T16:35:10.953Z,14.55
2023-04-09T16:38:13.543Z,25.17
2023-04-09T16:41:16.152Z,16.95
2023-04-09T16:44:18.668Z,17.17
2023-04-09T16:47:22.581Z,15.60
2023-04-09T16:50:25.264Z,16.42
2023-04-09T16:53:27.784Z,18.52
2023-04-09T16:56:30.452Z,22.17
2023-04-09T16:59:33.444Z,18.77
2023-04-09T17:02:39.297Z,18.15
2023-04-09T17:05:42.013Z,18.38
2023-04-09T17:08:44.519Z,18.05
2023-04-09T17:11:47.119Z,16.70
2023-04-09T17:14:49.967Z,19.25
2023-04-09T17:17:54.057Z,17.75
2023-04-09T17:20:57.009Z,19.85
2023-04-09T17:23:59.652Z,18.73
2023-04-09T17:27:02.223Z,22.92
2023-04-09T17:30:05.442Z,18.45
2023-04-09T17:33:09.426Z,19.17
2023-04-09T17:36:11.991Z,20.45
2023-04-09T17:39:14.591Z,20.98
2023-04-09T17:42:17.119Z,20.15
2023-04-09T17:45:19.824Z,21.58
2023-04-09T17:48:23.696Z,24.73
2023-04-09T17:51:26.950Z,19.17
2023-04-09T17:54:33.352Z,20.67
2023-04-09T17:57:36.417Z,20.55
2023-04-09T18:00:40.208Z,22.48
2023-04-09T18:03:45.560Z,19.23
2023-04-09T18:06:48.419Z,20.05
2023-04-09T18:09:50.980Z,20.48
2023-04-09T18:12:53.504Z,19.45
2023-04-09T18:15:56.554Z,18.23
2023-04-09T18:19:00.434Z,18.27
2023-04-09T18:22:02.957Z,20.00
2023-04-09T18:25:07.009Z,22.45
2023-04-09T18:28:09.760Z,20.65
2023-04-09T18:31:12.412Z,19.83
2023-04-09T18:34:16.697Z,20.20
2023-04-09T18:37:19.290Z,20.35
2023-04-09T18:40:21.976Z,21.77
2023-04-09T18:43:24.500Z,20.13
2023-04-09T18:46:27.152Z,19.85
2023-04-09T18:49:31.037Z,20.02
2023-04-09T18:52:33.605Z,18.60
2023-04-09T18:55:37.936Z,19.38
2023-04-09T18:58:41.069Z,18.77
2023-04-09T19:01:43.668Z,20.92
2023-04-09T19:04:47.753Z,19.33
2023-04-09T19:07:50.556Z,19.20
2023-04-09T19:10:53.543Z,23.00
2023-04-09T19:13:56.044Z,20.25
2023-04-09T19:16:58.892Z,20.50
2023-04-09T19:20:02.795Z,21.05
2023-04-09T19:23:06.542Z,20.55
2023-04-09T19:26:09.683Z,21.50
2023-04-09T19:29:12.264Z,26.13
2023-04-09T19:32:14.872Z,29.23
2023-04-09T19:35:18.803Z,21.40
2023-04-09T19:38:21.596Z,22.00
2023-04-09T19:41:24.132Z,20.17
2023-04-09T19:44:26.697Z,18.77
2023-04-09T19:47:29.286Z,21.50
2023-04-09T19:50:35.387Z,20.80
2023-04-09T19:53:39.108Z,23.42
2023-04-09T19:56:42.416Z,23.83
2023-04-09T19:59:44.997Z,22.42
2023-04-09T20:02:47.635Z,21.88
2023-04-09T20:05:51.720Z,20.63
2023-04-09T20:08:55.902Z,24.00
2023-04-09T20:12:04.112Z,24.50
2023-04-09T20:15:09.822Z,20.48
2023-04-09T20:18:12.972Z,22.88
2023-04-09T20:21:16.863Z,20.60
2023-04-09T20:24:19.489Z,20.58
2023-04-09T20:27:22.492Z,21.90
2023-04-09T20:30:25.011Z,19.58
2023-04-09T20:33:27.707Z,21.80
2023-04-09T20:36:31.607Z,24.60
2023-04-09T20:39:34.211Z,21.52
2023-04-09T20:42:36.744Z,22.33
2023-04-09T20:45:39.405Z,19.48
2023-04-09T20:48:42.324Z,25.20
2023-04-09T20:51:46.243Z,21.73
2023-04-09T20:54:48.763Z,23.05
2023-04-09T20:57:51.777Z,21.27
2023-04-09T21:01:03.587Z,25.30
2023-04-09T21:04:06.507Z,20.55
2023-04-09T21:07:10.440Z,23.00
2023-04-09T21:10:13.117Z,24.85
2023-04-09T21:13:15.619Z,20.08
2023-04-09T21:16:18.155Z,19.58
2023-04-09T21:19:20.810Z,22.30
2023-04-09T21:22:26.559Z,22.92
2023-04-09T21:25:29.284Z,22.95
2023-04-09T21:28:31.812Z,19.92
2023-04-09T21:31:35.523Z,20.40
2023-04-09T21:34:39.486Z,20.90
2023-04-09T21:37:43.371Z,23.60
2023-04-09T21:40:46.633Z,18.10
2023-04-09T21:43:49.167Z,18.13
2023-04-09T21:46:52.134Z,22.27
2023-04-09T21:49:54.639Z,18.95
2023-04-09T21:52:58.547Z,20.38
2023-04-09T21:56:03.461Z,19.88
2023-04-09T21:59:07.280Z,18.25
2023-04-09T22:02:10.013Z,18.75
2023-04-09T22:05:12.775Z,20.30
2023-04-09T22:08:16.728Z,24.42
2023-04-09T22:11:19.785Z,19.98
2023-04-09T22:14:22.481Z,20.50
2023-04-09T22:17:25.089Z,22.20
2023-04-09T22:20:27.668Z,19.77
2023-04-09T22:23:31.604Z,17.05
2023-04-09T22:26:34.176Z,18.55
2023-04-09T22:29:37.022Z,19.70
2023-04-09T22:32:39.540Z,21.98
2023-04-09T22:35:42.111Z,19.17
2023-04-09T22:38:46.093Z,21.70
2023-04-09T22:41:48.679Z,19.25
2023-04-09T22:44:51.213Z,19.48
2023-04-09T22:47:53.759Z,17.60
2023-04-09T22:50:57.636Z,18.75
2023-04-09T22:54:01.793Z,19.70
2023-04-09T22:57:04.532Z,20.42
2023-04-09T23:00:08.963Z,18.27
2023-04-09T23:03:11.622Z,21.58
2023-04-09T23:06:14.276Z,20.75
2023-04-09T23:09:18.202Z,20.80
2023-04-09T23:12:20.800Z,21.48
2023-04-09T23:15:23.494Z,22.02
2023-04-09T23:18:26.062Z,21.05
2023-04-09T23:21:28.844Z,20.35
2023-04-09T23:24:32.749Z,20.45
2023-04-09T23:27:35.252Z,23.90
2023-04-09T23:30:37.801Z,23.92
2023-04-09T23:33:40.304Z,22.55
2023-04-09T23:36:42.859Z,17.80
2023-04-09T23:39:47.143Z,19.88
2023-04-09T23:42:50.201Z,19.98
2023-04-09T23:45:52.756Z,22.90
2023-04-09T23:48:55.385Z,21.75
2023-04-09T23:51:57.868Z,18.35
2023-04-09T23:55:01.696Z,21.42
2023-04-09T23:58:04.448Z,20.50
